Time;durP1;ratioP1;P1;durP2;ratioP2;P2;SDS_P1;SDS_P2;PMS_P1;PMS_P2;Temp;Humidity;BMP_temperature;BMP_pressure;BME280_temperature;BME280_humidity;BME280_pressure;Samples;Min_cycle;Max_cycle;Signal;HPM_P1;HPM_P2
2022/04/30 00:02:07;;;;;;;9.75;7.97;;;6.30;99.90;;;;;;5109808;28;20049;-74
2022/04/30 00:04:52;;;;;;;13.80;7.53;;;6.20;99.90;;;;;;5108305;28;20051;-74
2022/04/30 00:07:19;;;;;;;13.10;7.82;;;6.20;99.90;;;;;;5110215;28;20040;-74
2022/04/30 00:09:46;;;;;;;11.80;7.55;;;6.20;99.90;;;;;;5109549;28;20039;-74
2022/04/30 00:12:12;;;;;;;12.30;8.05;;;6.10;99.90;;;;;;5101555;28;20098;-74
2022/04/30 00:14:40;;;;;;;11.80;7.50;;;6.30;99.90;;;;;;5092395;28;20071;-74
2022/04/30 00:17:06;;;;;;;13.82;7.88;;;6.20;99.90;;;;;;5107730;28;20441;-74
2022/04/30 00:19:33;;;;;;;9.65;6.95;;;6.20;99.90;;;;;;5110629;28;20048;-75
2022/04/30 00:21:58;;;;;;;13.88;7.10;;;6.20;99.90;;;;;;5109378;28;20518;-74
2022/04/30 00:24:26;;;;;;;10.43;7.78;;;6.20;99.90;;;;;;5106723;28;20066;-73
2022/04/30 00:26:52;;;;;;;9.57;7.50;;;6.20;99.90;;;;;;5101541;28;20070;-74
2022/04/30 00:29:17;;;;;;;10.90;7.15;;;6.20;99.90;;;;;;5109439;28;20122;-75
2022/04/30 00:31:43;;;;;;;9.60;6.80;;;6.20;99.90;;;;;;5105678;28;20551;-75
2022/04/30 00:34:09;;;;;;;13.43;8.27;;;6.00;99.90;;;;;;5103464;28;20051;-75
2022/04/30 00:36:35;;;;;;;13.85;7.25;;;6.10;99.90;;;;;;5109514;28;20063;-74
2022/04/30 00:39:03;;;;;;;16.27;8.38;;;6.10;99.90;;;;;;5109086;28;20051;-74
2022/04/30 00:41:32;;;;;;;11.80;7.63;;;6.10;99.90;;;;;;5110592;28;20042;-74
2022/04/30 00:44:00;;;;;;;15.88;8.70;;;5.90;99.90;;;;;;5108633;28;20035;-74
2022/04/30 00:46:25;;;;;;;11.02;7.72;;;6.00;99.90;;;;;;5110205;28;20040;-74
2022/04/30 00:48:53;;;;;;;14.38;7.50;;;6.00;99.90;;;;;;5107631;28;20066;-74
2022/04/30 00:51:21;;;;;;;15.98;7.47;;;6.10;99.90;;;;;;5090792;28;20410;-74
2022/04/30 00:53:49;;;;;;;16.73;8.23;;;6.10;99.90;;;;;;5108007;28;20089;-73
2022/04/30 00:56:18;;;;;;;11.57;7.30;;;6.10;99.90;;;;;;5109302;28;20064;-74
2022/04/30 00:58:47;;;;;;;12.35;8.32;;;6.10;99.90;;;;;;5102336;28;20043;-73
2022/04/30 01:01:14;;;;;;;10.55;7.95;;;6.00;99.90;;;;;;5108419;28;20083;-74
2022/04/30 01:03:39;;;;;;;11.45;8.07;;;5.90;99.90;;;;;;5075132;28;20046;-74
2022/04/30 01:06:06;;;;;;;11.70;6.90;;;6.00;99.90;;;;;;5107433;28;20395;-74
2022/04/30 01:08:32;;;;;;;10.82;7.10;;;6.00;99.90;;;;;;5109463;28;20568;-74
2022/04/30 01:11:01;;;;;;;9.63;6.47;;;6.00;99.90;;;;;;5108560;28;20058;-74
2022/04/30 01:13:28;;;;;;;11.07;7.10;;;6.00;99.90;;;;;;5107959;28;20032;-74
2022/04/30 01:15:58;;;;;;;15.10;7.70;;;6.00;99.90;;;;;;5090312;28;20092;-74
2022/04/30 01:18:26;;;;;;;10.27;6.55;;;6.00;99.90;;;;;;5109047;28;20039;-74
2022/04/30 01:20:56;;;;;;;9.50;6.90;;;6.00;99.90;;;;;;5100671;28;20414;-74
2022/04/30 01:23:23;;;;;;;11.57;7.60;;;6.00;99.90;;;;;;5109403;28;20124;-74
2022/04/30 01:25:50;;;;;;;12.77;6.88;;;5.90;99.90;;;;;;5107307;28;20047;-74
2022/04/30 01:28:18;;;;;;;11.15;6.70;;;5.80;99.90;;;;;;5109513;28;20039;-74
2022/04/30 01:30:43;;;;;;;10.73;6.47;;;5.80;99.90;;;;;;5090506;28;20048;-74
2022/04/30 01:38:37;;;;;;;13.88;8.15;;;5.70;99.90;;;;;;5107668;28;20534;-74
2022/04/30 01:41:03;;;;;;;9.73;6.90;;;5.60;99.90;;;;;;5108065;28;20154;-74
2022/04/30 01:43:29;;;;;;;11.10;7.10;;;7.00;99.90;;;;;;5108063;28;20043;-74
2022/04/30 01:45:55;;;;;;;9.13;7.30;;;5.60;99.90;;;;;;5108706;28;20072;-74
2022/04/30 01:48:22;;;;;;;10.70;7.03;;;5.60;99.90;;;;;;5090097;28;20047;-74
2022/04/30 01:50:48;;;;;;;10.75;7.22;;;5.50;99.90;;;;;;5108524;28;20050;-74
2022/04/30 01:53:14;;;;;;;13.30;7.53;;;5.60;99.90;;;;;;5108691;28;20387;-74
2022/04/30 01:55:40;;;;;;;9.18;6.85;;;5.60;99.90;;;;;;5108451;28;20047;-74
2022/04/30 01:58:06;;;;;;;9.65;6.75;;;5.60;99.90;;;;;;5107481;28;20050;-74
2022/04/30 02:00:32;;;;;;;11.82;6.72;;;5.60;99.90;;;;;;5108841;28;20518;-74
2022/04/30 02:03:06;;;;;;;10.45;7.05;;;5.60;99.90;;;;;;5108000;28;20036;-74
2022/04/30 02:05:33;;;;;;;10.73;6.97;;;5.60;99.90;;;;;;5107848;28;20047;-74
2022/04/30 02:08:06;;;;;;;13.45;7.13;;;5.60;99.90;;;;;;5106745;28;20051;-74
2022/04/30 02:10:35;;;;;;;11.73;6.57;;;5.70;99.90;;;;;;5108753;28;20044;-74
2022/04/30 02:13:00;;;;;;;9.27;6.25;;;5.70;99.90;;;;;;5108224;28;20050;-73
2022/04/30 02:15:27;;;;;;;10.02;6.82;;;5.70;99.90;;;;;;5108125;28;20039;-74
2022/04/30 02:17:54;;;;;;;8.30;6.05;;;5.70;99.90;;;;;;5106733;28;20444;-73
2022/04/30 02:20:28;;;;;;;11.00;6.05;;;5.80;99.90;;;;;;5090555;28;20035;-74
2022/04/30 02:22:55;;;;;;;;;;;5.70;99.90;;;;;;5107860;28;20048;-74
2022/04/30 02:25:21;;;;;;;8.32;5.78;;;5.70;99.90;;;;;;5108900;28;19919;-74
2022/04/30 02:27:53;;;;;;;9.63;6.07;;;5.80;99.90;;;;;;5106350;28;20086;-73
2022/04/30 02:30:21;;;;;;;8.68;6.28;;;5.70;99.90;;;;;;5107632;28;20044;-74
2022/04/30 02:32:55;;;;;;;10.40;6.53;;;5.70;99.90;;;;;;5106578;28;20746;-74
2022/04/30 02:35:26;;;;;;;10.23;6.75;;;5.80;99.90;;;;;;5107552;28;20451;-74
2022/04/30 02:37:56;;;;;;;8.32;6.55;;;5.80;99.90;;;;;;5106129;28;20086;-74
2022/04/30 02:40:24;;;;;;;9.13;6.03;;;5.70;99.90;;;;;;5107018;28;20040;-74
2022/04/30 02:42:51;;;;;;;9.68;6.15;;;5.70;99.90;;;;;;5107531;28;20126;-74
2022/04/30 02:45:18;;;;;;;7.40;5.65;;;5.70;99.90;;;;;;5107069;28;20036;-74
2022/04/30 02:47:46;;;;;;;9.82;6.18;;;5.70;99.90;;;;;;5106477;28;20046;-74
2022/04/30 02:50:13;;;;;;;9.70;6.18;;;5.60;99.90;;;;;;5105986;28;20254;-74
2022/04/30 02:52:43;;;;;;;9.32;5.70;;;5.80;99.90;;;;;;5107368;28;20058;-74
2022/04/30 02:55:10;;;;;;;8.60;5.95;;;5.80;99.90;;;;;;5106836;28;20071;-74
2022/04/30 03:00:48;;;;;;;11.02;6.78;;;5.80;99.90;;;;;;5104686;28;20044;-73
2022/04/30 03:03:15;;;;;;;10.70;6.18;;;5.70;99.90;;;;;;5105819;28;20043;-74
2022/04/30 03:05:43;;;;;;;5.85;5.25;;;5.70;99.90;;;;;;5107365;28;20497;-75
2022/04/30 03:08:15;;;;;;;14.52;6.18;;;5.70;99.90;;;;;;5107483;28;20052;-74
2022/04/30 03:10:45;;;;;;;7.38;5.95;;;5.70;99.90;;;;;;5089703;28;20044;-75
2022/04/30 03:13:13;;;;;;;10.23;6.68;;;5.70;99.90;;;;;;5088368;28;20115;-74
2022/04/30 03:15:40;;;;;;;8.05;6.05;;;5.70;99.90;;;;;;5108229;28;20066;-74
2022/04/30 03:23:37;;;;;;;7.38;5.70;;;5.80;99.90;;;;;;5106645;28;20059;-74
2022/04/30 03:26:09;;;;;;;10.77;5.97;;;5.80;99.90;;;;;;5077177;28;20105;-74
2022/04/30 03:28:40;;;;;;;9.55;6.07;;;5.80;99.90;;;;;;5095887;28;20587;-74
2022/04/30 03:31:07;;;;;;;8.05;6.13;;;5.70;99.90;;;;;;5098482;28;20044;-74
2022/04/30 03:33:34;;;;;;;7.72;5.90;;;7.50;99.90;;;;;;5089266;28;20441;-74
2022/04/30 03:36:00;;;;;;;7.35;5.65;;;5.60;99.90;;;;;;5107642;28;20111;-74
2022/04/30 03:38:26;;;;;;;5.82;5.32;;;5.60;99.90;;;;;;5091861;28;20044;-75
2022/04/30 03:40:52;;;;;;;8.98;5.85;;;5.10;99.90;;;;;;5092252;28;20394;-74
2022/04/30 03:43:18;;;;;;;6.00;5.40;;;5.70;99.90;;;;;;5111897;28;20074;-74
2022/04/30 03:45:44;;;;;;;8.40;5.45;;;5.70;99.90;;;;;;5111646;28;20051;-74
2022/04/30 03:48:12;;;;;;;8.90;5.70;;;5.70;99.90;;;;;;5110437;28;20074;-75
2022/04/30 03:50:38;;;;;;;10.77;6.10;;;5.80;99.90;;;;;;5110675;28;20047;-74
2022/04/30 03:53:04;;;;;;;8.85;5.88;;;5.80;99.90;;;;;;5108890;28;20082;-74
2022/04/30 03:55:30;;;;;;;8.52;5.70;;;5.80;99.90;;;;;;5111343;28;20555;-75
2022/04/30 03:57:55;;;;;;;9.77;6.20;;;5.80;99.90;;;;;;5110948;28;20403;-75
2022/04/30 04:00:21;;;;;;;5.93;5.15;;;5.80;99.90;;;;;;5110387;28;20035;-74
2022/04/30 04:02:47;;;;;;;9.45;6.28;;;5.80;99.90;;;;;;5111094;28;20046;-74
2022/04/30 04:05:13;;;;;;;10.18;5.97;;;5.70;99.90;;;;;;5109361;28;20035;-75
2022/04/30 04:07:39;;;;;;;7.82;5.43;;;5.70;99.90;;;;;;5109538;28;20065;-74
2022/04/30 04:10:06;;;;;;;9.43;5.20;;;6.90;99.90;;;;;;5108959;28;20032;-74
2022/04/30 04:12:31;;;;;;;8.65;6.65;;;5.80;99.90;;;;;;5111025;28;20449;-74
2022/04/30 04:17:41;;;;;;;10.23;5.80;;;5.80;99.90;;;;;;5110120;28;20056;-75
2022/04/30 04:20:09;;;;;;;8.15;5.32;;;6.20;99.90;;;;;;5110356;28;20063;-75
2022/04/30 04:22:36;;;;;;;9.35;5.65;;;5.80;99.90;;;;;;5109261;28;20048;-74
2022/04/30 04:27:47;;;;;;;11.32;6.22;;;5.80;99.90;;;;;;5110449;28;20044;-74
2022/04/30 04:30:13;;;;;;;10.45;6.53;;;5.80;99.90;;;;;;5108045;28;20398;-75
2022/04/30 04:32:38;;;;;;;8.13;6.43;;;5.70;99.90;;;;;;5111032;28;20125;-74
2022/04/30 04:35:04;;;;;;;11.68;7.95;;;5.80;99.90;;;;;;5108435;28;20041;-75
2022/04/30 04:37:31;;;;;;;10.23;6.60;;;5.70;99.90;;;;;;5109485;28;20050;-75
2022/04/30 04:39:57;;;;;;;7.90;6.88;;;5.70;99.90;;;;;;5109758;28;20035;-74
2022/04/30 04:42:22;;;;;;;11.70;7.05;;;5.70;99.90;;;;;;5108602;28;20079;-74
2022/04/30 04:44:48;;;;;;;11.43;6.53;;;5.70;99.90;;;;;;5109757;28;20035;-74
2022/04/30 04:47:14;;;;;;;7.45;6.57;;;5.70;99.90;;;;;;5110765;28;20043;-74
2022/04/30 04:49:41;;;;;;;11.13;6.70;;;5.70;99.90;;;;;;5108244;28;20124;-74
2022/04/30 04:52:10;;;;;;;9.38;6.97;;;5.80;99.90;;;;;;5100345;28;20035;-75
2022/04/30 04:54:35;;;;;;;8.13;6.10;;;5.80;99.90;;;;;;5109993;28;20553;-74
2022/04/30 04:57:01;;;;;;;6.75;6.05;;;7.10;99.90;;;;;;5109135;28;20031;-74
2022/04/30 04:59:27;;;;;;;9.80;6.55;;;5.80;99.90;;;;;;5108799;28;20066;-74
2022/04/30 05:01:52;;;;;;;10.70;6.90;;;5.80;99.90;;;;;;5091943;28;20507;-74
2022/04/30 05:04:19;;;;;;;12.45;7.00;;;5.90;99.90;;;;;;5107890;28;20498;-74
2022/04/30 05:06:44;;;;;;;8.60;6.82;;;5.90;99.90;;;;;;5091645;28;20146;-73
2022/04/30 05:09:10;;;;;;;11.50;6.75;;;5.90;99.90;;;;;;5108501;28;20523;-74
2022/04/30 05:11:36;;;;;;;11.40;7.20;;;5.90;99.90;;;;;;5107783;28;20058;-74
2022/04/30 05:14:01;;;;;;;13.18;7.30;;;6.00;99.90;;;;;;5090912;28;20035;-74
2022/04/30 05:16:27;;;;;;;13.68;6.85;;;6.00;99.90;;;;;;5108096;28;20044;-74
2022/04/30 05:18:52;;;;;;;13.82;8.10;;;6.40;99.90;;;;;;5108718;28;20399;-74
2022/04/30 05:21:18;;;;;;;15.40;7.18;;;6.10;99.90;;;;;;5091372;28;20054;-74
2022/04/30 05:23:43;;;;;;;15.82;7.22;;;6.10;99.90;;;;;;5109811;28;20055;-74
2022/04/30 05:26:09;;;;;;;11.65;7.60;;;6.20;99.90;;;;;;5107296;28;20546;-74
2022/04/30 05:28:34;;;;;;;9.00;7.20;;;6.20;99.90;;;;;;5108091;28;20452;-74
2022/04/30 05:31:00;;;;;;;15.43;8.10;;;6.20;99.90;;;;;;5107539;28;20036;-74
2022/04/30 05:33:26;;;;;;;11.73;7.60;;;6.30;99.90;;;;;;5109142;28;20054;-74
2022/04/30 05:35:52;;;;;;;12.95;7.65;;;6.20;99.90;;;;;;5109010;28;20383;-74
2022/04/30 05:38:17;;;;;;;9.57;7.68;;;6.30;99.90;;;;;;5107911;28;20039;-74
2022/04/30 05:40:43;;;;;;;14.43;7.95;;;6.30;99.90;;;;;;5090222;28;20452;-73
2022/04/30 05:43:08;;;;;;;10.50;8.05;;;6.40;99.90;;;;;;5108697;28;20047;-74
2022/04/30 05:45:34;;;;;;;10.15;7.22;;;6.40;99.90;;;;;;5109410;28;20114;-74
2022/04/30 05:48:00;;;;;;;13.40;7.20;;;8.40;99.90;;;;;;5107272;28;20055;-74
2022/04/30 05:50:25;;;;;;;11.57;7.88;;;6.20;99.90;;;;;;5109004;28;20518;-74
2022/04/30 05:52:51;;;;;;;10.43;7.50;;;6.60;99.90;;;;;;5106840;28;20047;-74
2022/04/30 05:55:17;;;;;;;13.77;7.90;;;6.70;99.90;;;;;;5109199;28;20032;-74
2022/04/30 05:57:42;;;;;;;11.43;8.15;;;6.70;99.90;;;;;;5109128;28;20089;-74
2022/04/30 06:00:09;;;;;;;15.48;9.68;;;6.70;99.90;;;;;;5107497;28;20190;-74
2022/04/30 06:02:35;;;;;;;21.80;8.63;;;6.80;99.90;;;;;;5108717;28;20047;-74
2022/04/30 06:05:00;;;;;;;13.70;8.73;;;6.80;99.90;;;;;;5090622;28;20124;-74
2022/04/30 06:07:26;;;;;;;10.23;8.23;;;8.10;99.90;;;;;;5108357;28;20502;-74
2022/04/30 06:09:51;;;;;;;11.70;8.13;;;6.90;99.90;;;;;;5107224;28;20047;-74
2022/04/30 06:12:17;;;;;;;18.08;8.80;;;7.10;99.90;;;;;;5106966;28;20032;-75
2022/04/30 06:14:43;;;;;;;14.27;9.38;;;7.00;99.90;;;;;;5107889;28;20092;-74
2022/04/30 06:17:09;;;;;;;16.25;9.73;;;7.10;99.90;;;;;;5103134;28;20118;-74
2022/04/30 06:19:35;;;;;;;15.82;9.65;;;7.10;99.90;;;;;;5108640;28;20031;-73
2022/04/30 06:22:01;;;;;;;15.38;9.20;;;7.20;99.90;;;;;;5107881;28;20051;-74
2022/04/30 06:24:26;;;;;;;10.82;8.48;;;7.30;99.90;;;;;;5109274;28;20036;-73
2022/04/30 06:26:52;;;;;;;12.85;8.70;;;7.20;99.90;;;;;;5107118;28;20071;-74
2022/04/30 06:29:18;;;;;;;15.95;9.07;;;7.30;99.90;;;;;;5089932;28;20139;-74
2022/04/30 06:31:44;;;;;;;14.75;9.55;;;7.30;99.90;;;;;;5108674;28;20058;-74
2022/04/30 06:34:10;;;;;;;10.93;7.70;;;7.30;99.90;;;;;;5106892;28;20487;-74
2022/04/30 06:36:35;;;;;;;13.70;8.57;;;7.40;99.90;;;;;;5108264;28;20310;-74
2022/04/30 06:39:01;;;;;;;11.02;8.07;;;7.50;99.90;;;;;;5106685;28;20162;-74
2022/04/30 06:41:27;;;;;;;11.45;7.88;;;7.60;99.90;;;;;;5089844;28;20048;-74
2022/04/30 06:43:52;;;;;;;17.67;7.97;;;7.60;99.90;;;;;;5088934;28;20056;-74
2022/04/30 06:46:18;;;;;;;12.93;8.48;;;7.70;99.90;;;;;;5107515;28;20047;-74
2022/04/30 06:48:47;;;;;;;13.05;8.38;;;7.80;99.90;;;;;;4401841;28;10000699;-74
2022/04/30 06:51:12;;;;;;;13.65;7.40;;;7.90;99.90;;;;;;5085973;28;20082;-75
2022/04/30 06:59:11;;;;;;;13.90;7.57;;;8.10;99.90;;;;;;5104350;28;20051;-75
2022/04/30 07:04:10;;;;;;;7.93;6.18;;;8.30;99.90;;;;;;5104547;28;20494;-75
2022/04/30 07:06:39;;;;;;;10.65;6.93;;;8.40;99.90;;;;;;5105432;28;20043;-75
2022/04/30 07:09:06;;;;;;;12.07;6.82;;;7.90;99.90;;;;;;5102155;28;20071;-74
2022/04/30 07:11:32;;;;;;;9.95;6.03;;;8.70;99.90;;;;;;5086945;28;20074;-76
2022/04/30 07:13:58;;;;;;;24.73;5.90;;;8.50;99.90;;;;;;5107326;28;20473;-76
2022/04/30 07:16:24;;;;;;;20.70;7.20;;;8.70;99.90;;;;;;5076472;28;20035;-76
2022/04/30 07:18:50;;;;;;;10.38;6.45;;;8.70;99.90;;;;;;5110519;28;20426;-76
2022/04/30 07:21:16;;;;;;;11.00;4.47;;;10.70;99.90;;;;;;5110305;28;20035;-75
2022/04/30 07:23:41;;;;;;;8.38;3.58;;;9.30;99.90;;;;;;5093736;28;20533;-75
2022/04/30 07:26:07;;;;;;;10.10;6.10;;;10.50;99.90;;;;;;5092746;28;20040;-77
2022/04/30 07:28:36;;;;;;;15.80;5.03;;;10.60;99.90;;;;;;5110019;28;20067;-75
2022/04/30 07:31:05;;;;;;;11.13;5.13;;;8.80;99.90;;;;;;5111501;28;20043;-75
2022/04/30 07:33:31;;;;;;;9.70;5.30;;;9.30;99.90;;;;;;5111196;28;20093;-75
2022/04/30 07:35:57;;;;;;;13.00;6.38;;;9.30;99.90;;;;;;5110665;28;20048;-75
2022/04/30 07:38:23;;;;;;;13.00;6.82;;;9.30;99.90;;;;;;5109716;28;20040;-75
2022/04/30 07:40:49;;;;;;;15.98;9.25;;;9.40;99.90;;;;;;5110191;28;20631;-75
2022/04/30 07:43:14;;;;;;;164.48;47.80;;;9.40;99.90;;;;;;5109873;28;20118;-75
2022/04/30 07:45:40;;;;;;;36.80;12.20;;;9.50;99.90;;;;;;5110324;28;20468;-75
2022/04/30 07:48:06;;;;;;;103.07;29.17;;;9.40;99.90;;;;;;5110899;28;20479;-75
2022/04/30 07:50:35;;;;;;;41.40;14.10;;;9.50;99.90;;;;;;5111740;28;20407;-75
2022/04/30 07:53:05;;;;;;;19.58;8.35;;;9.60;99.90;;;;;;5109675;28;20130;-75
2022/04/30 07:55:31;;;;;;;22.52;8.60;;;9.60;99.90;;;;;;5102989;28;20047;-75
2022/04/30 07:57:57;;;;;;;23.63;9.82;;;9.60;99.90;;;;;;5109328;28;20046;-75
2022/04/30 08:00:26;;;;;;;26.27;12.25;;;9.70;99.90;;;;;;5110821;28;20047;-76
2022/04/30 08:02:56;;;;;;;23.17;9.48;;;9.80;99.90;;;;;;5110752;28;20084;-76
2022/04/30 08:05:23;;;;;;;8.80;5.95;;;9.80;99.90;;;;;;5110917;28;20078;-76
2022/04/30 08:07:48;;;;;;;13.38;6.50;;;9.80;99.90;;;;;;5065928;28;20039;-76
2022/04/30 08:10:14;;;;;;;21.15;8.70;;;9.90;99.90;;;;;;5107931;28;20364;-75
2022/04/30 08:12:40;;;;;;;14.82;6.78;;;10.00;99.90;;;;;;5109336;28;20055;-75
2022/04/30 08:15:06;;;;;;;24.13;8.88;;;10.00;99.90;;;;;;5109001;28;20555;-75
2022/04/30 08:17:31;;;;;;;28.70;6.47;;;10.00;99.90;;;;;;5110603;28;20040;-75
2022/04/30 08:19:57;;;;;;;44.28;20.67;;;10.10;99.90;;;;;;5092459;28;20087;-76
2022/04/30 08:22:22;;;;;;;77.57;31.77;;;10.10;99.90;;;;;;5110329;28;20376;-75
2022/04/30 08:24:48;;;;;;;19.83;10.88;;;10.10;99.90;;;;;;5107830;28;20156;-76
2022/04/30 08:27:13;;;;;;;15.25;6.60;;;10.10;99.90;;;;;;5109279;28;20059;-75
2022/04/30 08:29:39;;;;;;;9.18;5.15;;;10.20;99.90;;;;;;5108638;28;20031;-75
2022/04/30 08:32:05;;;;;;;9.75;4.40;;;10.60;99.90;;;;;;5108233;28;20040;-75
2022/04/30 08:34:32;;;;;;;7.75;3.90;;;10.30;99.90;;;;;;5091344;28;20053;-75
2022/04/30 08:36:57;;;;;;;6.15;3.58;;;10.30;99.90;;;;;;5110311;28;20047;-76
2022/04/30 08:39:23;;;;;;;7.18;3.60;;;10.30;99.90;;;;;;5091627;28;20115;-76
2022/04/30 08:41:49;;;;;;;7.95;4.25;;;10.40;99.90;;;;;;5108233;28;20027;-74
2022/04/30 08:44:16;;;;;;;2.78;2.40;;;10.40;99.90;;;;;;5110362;28;20043;-75
2022/04/30 08:46:42;;;;;;;5.28;2.78;;;10.40;99.90;;;;;;4738337;28;10000251;-73
2022/04/30 08:49:09;;;;;;;6.13;3.25;;;10.40;99.90;;;;;;5107500;28;20051;-74
2022/04/30 08:51:35;;;;;;;7.00;3.25;;;10.40;99.90;;;;;;5106599;28;20079;-75
2022/04/30 08:54:01;;;;;;;4.40;3.65;;;10.40;99.90;;;;;;5089425;28;20087;-75
2022/04/30 08:56:27;;;;;;;7.80;4.38;;;10.40;99.90;;;;;;5106340;28;20150;-73
2022/04/30 08:59:04;;;;;;;14.32;5.63;;;10.50;99.90;;;;;;5106563;28;20542;-71
2022/04/30 09:01:32;;;;;;;15.93;9.00;;;10.50;99.90;;;;;;5106429;28;20035;-74
2022/04/30 09:03:58;;;;;;;11.57;7.10;;;9.60;99.90;;;;;;5107344;28;20479;-74
2022/04/30 09:06:26;;;;;;;12.10;6.18;;;10.60;99.90;;;;;;5089945;28;20093;-74
2022/04/30 09:08:52;;;;;;;9.55;4.47;;;10.70;99.90;;;;;;5106774;27;20506;-73
2022/04/30 09:11:26;;;;;;;6.88;4.00;;;10.80;99.90;;;;;;5107041;28;20122;-73
2022/04/30 09:13:52;;;;;;;7.65;4.40;;;10.80;99.90;;;;;;5089686;28;20517;-74
2022/04/30 09:16:22;;;;;;;6.18;3.42;;;10.90;99.90;;;;;;5108085;28;20039;-74
2022/04/30 09:18:49;;;;;;;6.80;4.70;;;10.90;99.90;;;;;;5105327;28;20051;-74
2022/04/30 09:21:17;;;;;;;8.45;4.80;;;10.90;99.90;;;;;;5108805;28;20043;-74
2022/04/30 09:23:43;;;;;;;25.27;9.25;;;11.00;99.90;;;;;;5109666;28;20054;-73
2022/04/30 09:26:08;;;;;;;8.07;4.90;;;11.10;99.90;;;;;;5108468;28;20039;-74
2022/04/30 09:28:36;;;;;;;9.15;4.07;;;11.10;99.90;;;;;;5107631;28;20039;-76
2022/04/30 09:31:14;;;;;;;14.02;5.65;;;11.50;99.90;;;;;;5099602;28;20616;-73
2022/04/30 09:33:55;;;;;;;7.43;4.07;;;11.30;99.90;;;;;;5103425;28;20039;-72
2022/04/30 09:39:17;;;;;;;5.90;4.35;;;11.50;99.90;;;;;;5108422;28;20059;-73
2022/04/30 09:41:43;;;;;;;33.28;15.93;;;11.60;99.90;;;;;;5100937;28;20042;-73
2022/04/30 09:44:10;;;;;;;13.70;6.82;;;12.30;99.90;;;;;;5109571;28;20534;-72
2022/04/30 09:46:37;;;;;;;41.85;13.60;;;11.90;99.90;;;;;;5107299;28;20046;-72
2022/04/30 09:54:38;;;;;;;27.95;10.55;;;12.10;99.90;;;;;;5108430;28;20123;-71
2022/04/30 09:57:07;;;;;;;45.72;19.45;;;12.10;99.90;;;;;;5108783;28;20478;-72
2022/04/30 09:59:37;;;;;;;15.80;8.00;;;12.10;99.90;;;;;;5108699;28;20083;-73
2022/04/30 10:02:05;;;;;;;10.80;3.97;;;12.20;99.90;;;;;;5108938;28;20078;-71
2022/04/30 10:04:33;;;;;;;7.53;3.55;;;12.20;99.90;;;;;;5108048;28;20127;-71
2022/04/30 10:07:01;;;;;;;5.70;3.85;;;12.20;99.90;;;;;;5108141;28;20495;-73
2022/04/30 10:09:31;;;;;;;7.43;4.10;;;12.10;99.90;;;;;;5109042;28;20050;-73
2022/04/30 10:12:11;;;;;;;6.93;3.33;;;12.00;99.90;;;;;;5108843;28;20067;-73
2022/04/30 10:15:02;;;;;;;6.70;3.78;;;12.00;99.90;;;;;;5107156;28;20103;-72
2022/04/30 10:17:33;;;;;;;5.03;3.53;;;12.00;99.90;;;;;;5109236;28;20110;-72
2022/04/30 10:20:01;;;;;;;4.82;4.05;;;12.00;99.90;;;;;;5108008;28;20127;-74
2022/04/30 10:22:27;;;;;;;5.35;4.32;;;11.90;99.90;;;;;;5107523;28;20092;-74
2022/04/30 10:24:56;;;;;;;6.03;4.00;;;11.90;99.90;;;;;;5108525;28;20043;-72
2022/04/30 10:27:22;;;;;;;6.45;4.63;;;11.90;99.90;;;;;;5106664;28;20043;-73
2022/04/30 10:29:58;;;;;;;7.65;3.70;;;11.80;99.90;;;;;;5107312;28;20123;-72
2022/04/30 10:32:37;;;;;;;13.00;4.25;;;11.90;99.90;;;;;;5107646;28;20641;-73
2022/04/30 10:35:04;;;;;;;5.35;4.03;;;11.70;99.90;;;;;;5106782;28;20483;-73
2022/04/30 10:37:32;;;;;;;5.85;3.80;;;11.60;99.90;;;;;;5109001;28;20039;-73
2022/04/30 10:40:03;;;;;;;5.57;4.25;;;11.50;99.90;;;;;;5108652;28;20039;-72
2022/04/30 10:42:39;;;;;;;6.50;3.78;;;11.40;99.90;;;;;;5108572;28;20039;-72
2022/04/30 10:45:07;;;;;;;9.95;4.28;;;11.40;99.90;;;;;;5089926;28;20032;-73
2022/04/30 10:47:33;;;;;;;7.47;3.90;;;11.40;99.90;;;;;;5108822;28;20043;-76
2022/04/30 10:49:58;;;;;;;8.90;4.18;;;11.30;99.90;;;;;;5100637;28;21373;-75
2022/04/30 10:52:25;;;;;;;5.43;4.05;;;11.30;99.90;;;;;;5110514;28;20047;-75
2022/04/30 10:54:53;;;;;;;6.90;4.32;;;11.20;99.90;;;;;;5111584;28;20042;-76
2022/04/30 10:57:19;;;;;;;17.42;12.32;;;11.10;99.90;;;;;;5110237;28;20046;-75
2022/04/30 10:59:56;;;;;;;39.75;25.35;;;11.10;99.90;;;;;;5110624;28;20031;-75
2022/04/30 11:02:21;;;;;;;9.00;5.88;;;11.00;99.90;;;;;;5121728;27;20075;-76
2022/04/30 11:04:47;;;;;;;4.80;4.28;;;10.90;99.90;;;;;;5109304;28;20078;-75
2022/04/30 11:07:13;;;;;;;7.30;3.53;;;10.80;99.90;;;;;;5112275;28;20046;-75
2022/04/30 11:09:43;;;;;;;5.72;3.40;;;10.80;99.90;;;;;;5110418;28;20044;-75
2022/04/30 11:12:14;;;;;;;6.60;3.75;;;10.80;99.90;;;;;;5106963;28;20081;-75
2022/04/30 11:14:42;;;;;;;4.57;3.50;;;11.30;99.90;;;;;;5110953;28;20047;-75
2022/04/30 11:17:07;;;;;;;4.47;3.28;;;10.70;99.90;;;;;;5108581;27;20034;-75
2022/04/30 11:19:40;;;;;;;10.30;3.50;;;10.70;99.90;;;;;;5105755;28;20047;-75
2022/04/30 11:22:08;;;;;;;5.82;2.72;;;10.60;99.90;;;;;;5095470;28;20046;-75
2022/04/30 11:24:34;;;;;;;6.03;3.38;;;10.50;99.90;;;;;;5112998;28;20100;-75
2022/04/30 11:27:05;;;;;;;6.43;3.20;;;10.50;99.90;;;;;;5093255;28;20495;-75
2022/04/30 11:29:32;;;;;;;6.47;3.50;;;10.50;99.90;;;;;;5109713;28;20039;-74
2022/04/30 11:31:58;;;;;;;7.53;4.22;;;10.50;99.90;;;;;;5111497;28;20047;-76
2022/04/30 11:34:24;;;;;;;6.57;3.60;;;10.50;99.90;;;;;;5099729;28;20151;-76
2022/04/30 11:36:54;;;;;;;6.90;4.13;;;10.50;99.90;;;;;;4738213;28;10000270;-75
2022/04/30 11:39:20;;;;;;;10.98;4.57;;;10.50;99.90;;;;;;5104563;28;20044;-75
2022/04/30 11:41:48;;;;;;;6.78;4.30;;;10.50;99.90;;;;;;5082256;28;20135;-76
2022/04/30 11:44:16;;;;;;;7.88;4.50;;;10.50;99.90;;;;;;5107930;28;20035;-75
2022/04/30 11:46:44;;;;;;;7.05;4.50;;;10.50;99.90;;;;;;5090548;28;20047;-75
2022/04/30 11:49:11;;;;;;;13.20;4.20;;;10.50;99.90;;;;;;5107354;28;20425;-75
2022/04/30 11:51:38;;;;;;;9.73;4.65;;;11.60;99.90;;;;;;5107047;28;20063;-75
2022/04/30 11:54:08;;;;;;;8.50;4.78;;;11.90;99.90;;;;;;5108113;28;20051;-75
2022/04/30 11:56:34;;;;;;;7.75;4.70;;;10.50;99.90;;;;;;5108365;28;20491;-76
2022/04/30 11:59:00;;;;;;;12.07;7.22;;;11.50;99.90;;;;;;5107532;28;20063;-76
2022/04/30 12:01:30;;;;;;;17.80;10.73;;;10.50;99.90;;;;;;5108327;28;20101;-76
2022/04/30 12:04:09;;;;;;;9.18;4.90;;;10.50;99.90;;;;;;5107425;28;20574;-76
2022/04/30 12:06:37;;;;;;;6.90;4.43;;;10.60;99.90;;;;;;5106851;28;20154;-75
2022/04/30 12:09:19;;;;;;;5.85;4.55;;;10.60;99.90;;;;;;5080764;28;21006;-76
2022/04/30 12:11:49;;;;;;;6.75;5.05;;;10.70;99.90;;;;;;5089500;28;20039;-76
2022/04/30 12:14:16;;;;;;;15.35;5.55;;;10.60;99.90;;;;;;5106997;28;20321;-75
2022/04/30 12:16:44;;;;;;;9.55;4.72;;;10.70;99.90;;;;;;5090504;28;20403;-76
2022/04/30 12:25:09;;;;;;;9.75;4.90;;;10.80;99.90;;;;;;5101150;28;20051;-75
2022/04/30 12:27:39;;;;;;;6.00;4.60;;;10.80;99.90;;;;;;5069654;28;20121;-75
2022/04/30 12:30:06;;;;;;;14.27;10.27;;;10.90;99.90;;;;;;5106987;28;20047;-75
2022/04/30 12:32:33;;;;;;;6.75;4.20;;;10.90;99.90;;;;;;5104854;28;20043;-76
2022/04/30 12:35:01;;;;;;;11.77;4.32;;;10.90;99.90;;;;;;5108014;28;20056;-77
2022/04/30 12:37:34;;;;;;;7.40;4.30;;;10.90;99.90;;;;;;5107578;28;20372;-76
2022/04/30 12:40:01;;;;;;;10.07;4.25;;;11.90;99.90;;;;;;5081225;28;20048;-76
2022/04/30 12:42:27;;;;;;;7.40;4.53;;;10.90;99.90;;;;;;5089633;28;20372;-77
2022/04/30 12:44:52;;;;;;;7.35;4.25;;;10.90;99.90;;;;;;5085786;28;20067;-75
2022/04/30 12:47:18;;;;;;;5.50;4.20;;;11.00;99.90;;;;;;5105021;28;20099;-75
2022/04/30 12:49:43;;;;;;;8.13;4.20;;;11.00;99.90;;;;;;5109688;28;20051;-76
2022/04/30 12:52:09;;;;;;;7.82;4.47;;;11.10;99.90;;;;;;5109910;28;20035;-75
2022/04/30 12:54:35;;;;;;;5.97;4.50;;;11.10;99.90;;;;;;5108834;28;20122;-75
2022/04/30 12:57:01;;;;;;;8.07;4.70;;;11.20;99.90;;;;;;5110190;28;20040;-75
2022/04/30 12:59:28;;;;;;;15.55;12.13;;;12.00;99.90;;;;;;5110257;28;20039;-77
2022/04/30 13:01:55;;;;;;;8.63;6.15;;;11.20;99.90;;;;;;5107775;28;20043;-76
2022/04/30 13:04:20;;;;;;;7.53;4.57;;;11.30;99.90;;;;;;5110611;28;20502;-75
2022/04/30 13:06:46;;;;;;;12.25;4.93;;;11.30;99.90;;;;;;5109950;28;20043;-76
2022/04/30 13:14:57;;;;;;;7.97;4.40;;;11.40;99.90;;;;;;5081046;28;20068;-74
2022/04/30 13:17:22;;;;;;;7.82;5.18;;;11.40;99.90;;;;;;5079113;28;20062;-75
2022/04/30 13:19:49;;;;;;;7.10;4.15;;;11.40;99.90;;;;;;5108286;28;20046;-74
2022/04/30 13:22:15;;;;;;;6.60;4.00;;;11.40;99.90;;;;;;5081251;28;20063;-75
2022/04/30 13:24:41;;;;;;;7.25;3.40;;;11.40;99.90;;;;;;5109681;28;20479;-75
2022/04/30 13:27:06;;;;;;;4.25;3.58;;;11.50;99.90;;;;;;5108569;28;20036;-75
2022/04/30 13:29:32;;;;;;;6.93;3.65;;;11.50;99.90;;;;;;5093093;28;20115;-74
2022/04/30 13:31:58;;;;;;;4.78;3.60;;;11.50;99.90;;;;;;5108873;28;20062;-75
2022/04/30 13:34:23;;;;;;;3.25;2.95;;;11.50;99.90;;;;;;5110877;28;20036;-76
2022/04/30 13:36:49;;;;;;;4.35;3.40;;;11.50;99.90;;;;;;5109970;27;20275;-75